createdAt,value
2018-12-08T00:00:07.733Z,1000.83
2018-12-08T00:01:07.741Z,1000.79
2018-12-08T00:02:07.750Z,1000.77
2018-12-08T00:03:07.752Z,1000.75
2018-12-08T00:04:07.755Z,1000.76
2018-12-08T00:05:07.757Z,1000.76
2018-12-08T00:06:07.763Z,1000.81
2018-12-08T00:07:07.769Z,1000.86
2018-12-08T00:08:07.776Z,1000.81
2018-12-08T00:09:07.771Z,1000.87
2018-12-08T00:10:07.781Z,1000.85
2018-12-08T00:11:07.799Z,1000.88
2018-12-08T00:12:07.792Z,1000.83
2018-12-08T00:13:07.803Z,1000.84
2018-12-08T00:14:07.800Z,1000.82
2018-12-08T00:15:07.802Z,1000.77
2018-12-08T00:16:07.809Z,1000.73
2018-12-08T00:17:07.825Z,1000.81
2018-12-08T00:18:07.820Z,1000.82
2018-12-08T00:19:07.834Z,1000.83
2018-12-08T00:20:07.830Z,1000.84
2018-12-08T00:21:07.852Z,1000.86
2018-12-08T00:22:07.836Z,1000.88
2018-12-08T00:23:07.842Z,1000.86
2018-12-08T00:24:07.846Z,1000.91
2018-12-08T00:25:08.366Z,1000.86
2018-12-08T00:26:07.856Z,1000.90
2018-12-08T00:27:07.925Z,1000.86
2018-12-08T00:28:07.868Z,1000.88
2018-12-08T00:29:07.873Z,1000.93
2018-12-08T00:30:07.872Z,1000.89
2018-12-08T00:31:07.878Z,1000.87
2018-12-08T00:32:07.892Z,1000.88
2018-12-08T00:33:07.892Z,1000.96
2018-12-08T00:34:07.884Z,1000.96
2018-12-08T00:35:07.958Z,1001.01
2018-12-08T00:36:07.900Z,1001.03
2018-12-08T00:37:07.924Z,1000.98
2018-12-08T00:38:07.909Z,1001.09
2018-12-08T00:39:07.928Z,1001.03
2018-12-08T00:40:07.921Z,1001.09
2018-12-08T00:41:07.930Z,1001.08
2018-12-08T00:42:07.928Z,1001.14
2018-12-08T00:43:07.930Z,1001.13
2018-12-08T00:44:07.934Z,1001.13
2018-12-08T00:45:07.965Z,1001.15
2018-12-08T00:46:07.949Z,1001.15
2018-12-08T00:47:07.953Z,1001.14
2018-12-08T00:48:07.959Z,1001.14
2018-12-08T00:49:07.969Z,1001.14
2018-12-08T00:50:07.959Z,1001.05
2018-12-08T00:51:07.981Z,1000.99
2018-12-08T00:52:07.977Z,1001.08
2018-12-08T00:53:07.981Z,1001.07
2018-12-08T00:54:07.985Z,1001.10
2018-12-08T00:55:08.004Z,1001.18
2018-12-08T00:56:08.000Z,1001.21
2018-12-08T00:57:08.003Z,1001.18
2018-12-08T00:58:08.000Z,1001.20
2018-12-08T00:59:08.016Z,1001.27
2018-12-08T01:00:08.022Z,1001.19
2018-12-08T01:01:08.015Z,1001.22
2018-12-08T01:02:08.021Z,1001.19
2018-12-08T01:03:08.025Z,1001.27
2018-12-08T01:04:08.027Z,1001.18
2018-12-08T01:05:08.036Z,1001.35
2018-12-08T01:06:08.039Z,1001.14
2018-12-08T01:07:08.048Z,1001.09
2018-12-08T01:08:08.056Z,1001.15
2018-12-08T01:09:08.055Z,1001.19
2018-12-08T01:10:08.054Z,1001.29
2018-12-08T01:11:08.066Z,1001.25
2018-12-08T01:12:08.066Z,1001.30
2018-12-08T01:13:08.072Z,1001.30
2018-12-08T01:14:08.076Z,1001.29
2018-12-08T01:15:08.081Z,1001.26
2018-12-08T01:16:08.085Z,1001.29
2018-12-08T01:17:08.091Z,1001.28
2018-12-08T01:18:08.095Z,1001.35
2018-12-08T01:19:08.108Z,1001.25
2018-12-08T01:20:08.103Z,1001.39
2018-12-08T01:21:08.109Z,1001.37
2018-12-08T01:22:08.208Z,1001.44
2018-12-08T01:23:08.120Z,1001.42
2018-12-08T01:24:08.125Z,1001.43
2018-12-08T01:25:08.129Z,1001.41
2018-12-08T01:26:08.133Z,1001.44
2018-12-08T01:27:08.140Z,1001.40
2018-12-08T01:28:08.148Z,1001.41
2018-12-08T01:29:08.147Z,1001.43
2018-12-08T01:30:08.147Z,1001.37
2018-12-08T01:31:08.159Z,1001.41
2018-12-08T01:32:08.158Z,1001.43
2018-12-08T01:33:08.167Z,1001.35
2018-12-08T01:34:08.165Z,1001.45
2018-12-08T01:35:08.175Z,1001.43
2018-12-08T01:36:08.181Z,1001.39
2018-12-08T01:37:08.187Z,1001.39
2018-12-08T01:38:08.188Z,1001.38
2018-12-08T01:39:08.201Z,1001.44
2018-12-08T01:40:08.199Z,1001.41
2018-12-08T01:41:08.210Z,1001.38
2018-12-08T01:42:08.208Z,1001.46
2018-12-08T01:43:08.217Z,1001.41
2018-12-08T01:44:08.217Z,1001.39
2018-12-08T01:45:08.221Z,1001.39
2018-12-08T01:46:08.233Z,1001.36
2018-12-08T01:47:08.231Z,1001.40
2018-12-08T01:48:08.245Z,1001.44
2018-12-08T01:49:08.241Z,1001.36
2018-12-08T01:50:08.247Z,1001.36
2018-12-08T01:51:08.254Z,1001.36
2018-12-08T01:52:08.261Z,1001.35
2018-12-08T01:53:08.263Z,1001.34
2018-12-08T01:54:08.263Z,1001.36
2018-12-08T01:55:08.269Z,1001.34
2018-12-08T01:56:08.273Z,1001.28
2018-12-08T01:57:08.283Z,1001.28
2018-12-08T01:58:08.285Z,1001.31
2018-12-08T01:59:08.291Z,1001.27
2018-12-08T02:00:08.297Z,1001.23
2018-12-08T02:01:08.296Z,1001.32
2018-12-08T02:02:08.321Z,1001.25
2018-12-08T02:03:08.303Z,1001.27
2018-12-08T02:04:08.309Z,1001.31
2018-12-08T02:05:08.321Z,1001.23
2018-12-08T02:06:08.325Z,1001.26
2018-12-08T02:07:08.323Z,1001.27
2018-12-08T02:08:08.331Z,1001.27
2018-12-08T02:09:08.334Z,1001.28
2018-12-08T02:10:08.333Z,1001.20
2018-12-08T02:11:08.343Z,1001.25
2018-12-08T02:12:08.341Z,1001.33
2018-12-08T02:13:08.351Z,1001.30
2018-12-08T02:14:08.345Z,1001.30
2018-12-08T02:15:08.359Z,1001.29
2018-12-08T02:16:08.914Z,1001.28
2018-12-08T02:17:08.371Z,1001.24
2018-12-08T02:18:08.373Z,1001.29
2018-12-08T02:19:08.411Z,1001.29
2018-12-08T02:20:08.445Z,1001.24
2018-12-08T02:21:08.527Z,1001.28
2018-12-08T02:22:08.494Z,1001.31
2018-12-08T02:23:08.397Z,1001.28
2018-12-08T02:24:08.413Z,1001.25
2018-12-08T02:25:08.406Z,1001.30
2018-12-08T02:26:08.414Z,1001.26
2018-12-08T02:27:08.417Z,1001.27
2018-12-08T02:28:08.910Z,1001.20
2018-12-08T02:29:08.420Z,1001.30
2018-12-08T02:30:08.431Z,1001.29
2018-12-08T02:31:08.433Z,1001.28
2018-12-08T02:32:08.437Z,1001.27
2018-12-08T02:33:08.444Z,1001.26
2018-12-08T02:34:08.446Z,1001.24
2018-12-08T02:35:08.448Z,1001.24
2018-12-08T02:36:08.513Z,1001.19
2018-12-08T02:37:08.460Z,1001.18
2018-12-08T02:38:08.461Z,1001.18
2018-12-08T02:39:08.468Z,1001.12
2018-12-08T02:40:08.474Z,1001.14
2018-12-08T02:41:08.481Z,1001.12
2018-12-08T02:42:08.478Z,1001.08
2018-12-08T02:43:08.486Z,1001.10
2018-12-08T02:44:08.524Z,1001.16
2018-12-08T02:45:08.504Z,1001.19
2018-12-08T02:46:09.422Z,1001.25
2018-12-08T02:47:08.507Z,1001.12
2018-12-08T02:48:08.510Z,1001.15
2018-12-08T02:49:08.515Z,1001.12
2018-12-08T02:50:08.614Z,1001.09
2018-12-08T02:51:08.523Z,1001.09
2018-12-08T02:52:09.420Z,1001.13
2018-12-08T02:53:08.532Z,1001.10
2018-12-08T02:54:08.552Z,1001.13
2018-12-08T02:55:08.541Z,1001.17
2018-12-08T02:56:08.550Z,1001.17
2018-12-08T02:57:08.546Z,1001.15
2018-12-08T02:58:08.570Z,1001.14
2018-12-08T02:59:08.559Z,1001.12
2018-12-08T03:00:08.561Z,1001.10
2018-12-08T03:01:08.562Z,1001.05
2018-12-08T03:02:08.579Z,1001.07
2018-12-08T03:03:08.573Z,1001.03
2018-12-08T03:04:08.586Z,1001.04
2018-12-08T03:05:08.585Z,1001.05
2018-12-08T03:06:08.600Z,1001.05
2018-12-08T03:07:08.592Z,1001.05
2018-12-08T03:08:08.658Z,1001.05
2018-12-08T03:09:08.607Z,1001.04
2018-12-08T03:10:08.614Z,1001.02
2018-12-08T03:11:08.613Z,1001.05
2018-12-08T03:12:08.616Z,1001.02
2018-12-08T03:13:08.628Z,1000.96
2018-12-08T03:14:08.629Z,1000.95
2018-12-08T03:15:08.630Z,1000.95
2018-12-08T03:16:08.626Z,1000.95
2018-12-08T03:17:08.635Z,1000.98
2018-12-08T03:18:08.644Z,1000.96
2018-12-08T03:19:08.648Z,1000.97
2018-12-08T03:20:08.654Z,1000.95
2018-12-08T03:21:08.655Z,1000.99
2018-12-08T03:22:08.660Z,1000.96
2018-12-08T03:23:08.669Z,1000.95
2018-12-08T03:24:08.672Z,1000.93
2018-12-08T03:25:08.672Z,1000.93
2018-12-08T03:26:08.676Z,1000.97
2018-12-08T03:27:08.683Z,1000.92
2018-12-08T03:28:08.688Z,1000.91
2018-12-08T03:29:08.694Z,1000.85
2018-12-08T03:30:08.696Z,1000.89
2018-12-08T03:31:08.704Z,1000.86
2018-12-08T03:32:08.710Z,1000.88
2018-12-08T03:33:08.719Z,1000.81
2018-12-08T03:34:08.714Z,1000.83
2018-12-08T03:35:08.726Z,1000.86
2018-12-08T03:36:08.729Z,1000.80
2018-12-08T03:37:08.728Z,1000.84
2018-12-08T03:38:08.742Z,1000.79
2018-12-08T03:39:08.739Z,1000.74
2018-12-08T03:40:08.753Z,1000.74
2018-12-08T03:41:08.750Z,1000.75
2018-12-08T03:42:08.755Z,1000.73
2018-12-08T03:43:08.755Z,1000.69
2018-12-08T03:44:08.760Z,1000.71
2018-12-08T03:45:08.764Z,1000.70
2018-12-08T03:46:08.765Z,1000.75
2018-12-08T03:47:08.774Z,1000.69
2018-12-08T03:48:08.778Z,1000.72
2018-12-08T03:49:08.784Z,1000.70
2018-12-08T03:50:08.790Z,1000.72
2018-12-08T03:51:08.793Z,1000.72
2018-12-08T03:52:08.802Z,1000.69
2018-12-08T03:53:08.797Z,1000.67
2018-12-08T03:54:08.803Z,1000.70
2018-12-08T03:55:08.807Z,1000.70
2018-12-08T03:56:08.813Z,1000.59
2018-12-08T03:57:08.823Z,1000.65
2018-12-08T03:58:08.822Z,1000.66
2018-12-08T03:59:08.831Z,1000.70
2018-12-08T04:00:08.833Z,1000.71
2018-12-08T04:01:08.838Z,1000.72
2018-12-08T04:02:08.841Z,1000.64
2018-12-08T04:03:08.850Z,1000.70
2018-12-08T04:04:08.968Z,1000.71
2018-12-08T04:05:08.858Z,1000.77
2018-12-08T04:06:08.857Z,1000.85
2018-12-08T04:07:08.889Z,1000.72
2018-12-08T04:08:08.955Z,1000.71
2018-12-08T04:09:08.872Z,1000.68
2018-12-08T04:10:08.874Z,1000.67
2018-12-08T04:11:08.883Z,1000.60
2018-12-08T04:12:08.885Z,1000.67
2018-12-08T04:13:08.891Z,1000.59
2018-12-08T04:14:08.904Z,1000.51
2018-12-08T04:15:08.902Z,1000.54
2018-12-08T04:16:08.908Z,1000.48
2018-12-08T04:17:08.913Z,1000.51
2018-12-08T04:18:08.923Z,1000.49
2018-12-08T04:19:08.920Z,1000.48
2018-12-08T04:20:08.932Z,1000.57
2018-12-08T04:21:08.923Z,1000.54
2018-12-08T04:22:08.925Z,1000.51
2018-12-08T04:23:08.936Z,1000.48
2018-12-08T04:24:08.944Z,1000.49
2018-12-08T04:25:08.941Z,1000.49
2018-12-08T04:26:08.952Z,1000.51
2018-12-08T04:27:08.955Z,1000.49
2018-12-08T04:28:08.964Z,1000.45
2018-12-08T04:29:08.957Z,1000.46
2018-12-08T04:30:08.968Z,1000.48
2018-12-08T04:31:08.974Z,1000.53
2018-12-08T04:32:08.979Z,1000.49
2018-12-08T04:33:08.977Z,1000.49
2018-12-08T04:34:08.983Z,1000.46
2018-12-08T04:35:09.000Z,1000.50
2018-12-08T04:36:08.996Z,1000.47
2018-12-08T04:37:08.999Z,1000.50
2018-12-08T04:38:08.999Z,1000.46
2018-12-08T04:39:09.005Z,1000.46
2018-12-08T04:40:09.018Z,1000.50
2018-12-08T04:41:09.015Z,1000.46
2018-12-08T04:42:09.018Z,1000.44
2018-12-08T04:43:09.027Z,1000.53
2018-12-08T04:44:09.027Z,1000.46
2018-12-08T04:45:09.036Z,1000.45
2018-12-08T04:46:09.042Z,1000.42
2018-12-08T04:47:09.056Z,1000.41
2018-12-08T04:48:09.051Z,1000.37
2018-12-08T04:49:09.053Z,1000.43
2018-12-08T04:50:09.060Z,1000.41
2018-12-08T04:51:09.061Z,1000.41
2018-12-08T04:52:09.061Z,1000.29
2018-12-08T04:53:09.066Z,1000.42
2018-12-08T04:54:09.073Z,1000.35
2018-12-08T04:55:09.083Z,1000.28
2018-12-08T04:56:09.084Z,1000.36
2018-12-08T04:57:09.087Z,1000.39
2018-12-08T04:58:09.092Z,1000.35
2018-12-08T04:59:09.097Z,1000.36
2018-12-08T05:00:09.099Z,1000.35
2018-12-08T05:01:09.103Z,1000.36
2018-12-08T05:02:09.113Z,1000.34
2018-12-08T05:03:09.124Z,1000.35
2018-12-08T05:04:09.120Z,1000.35
2018-12-08T05:05:09.125Z,1000.32
2018-12-08T05:06:09.133Z,1000.36
2018-12-08T05:07:09.129Z,1000.36
2018-12-08T05:08:09.137Z,1000.32
2018-12-08T05:09:09.136Z,1000.36
2018-12-08T05:10:09.147Z,1000.39
2018-12-08T05:11:09.143Z,1000.46
2018-12-08T05:12:09.155Z,1000.34
2018-12-08T05:13:09.158Z,1000.37
2018-12-08T05:14:09.163Z,1000.38
2018-12-08T05:15:09.169Z,1000.35
2018-12-08T05:16:09.171Z,1000.34
2018-12-08T05:17:09.173Z,1000.36
2018-12-08T05:18:09.179Z,1000.41
2018-12-08T05:19:09.189Z,1000.43
2018-12-08T05:20:09.193Z,1000.41
2018-12-08T05:21:09.195Z,1000.36
2018-12-08T05:22:09.195Z,1000.39
2018-12-08T05:23:09.207Z,1000.39
2018-12-08T05:24:09.211Z,1000.40
2018-12-08T05:25:09.222Z,1000.43
2018-12-08T05:26:09.218Z,1000.40
2018-12-08T05:27:09.218Z,1000.44
2018-12-08T05:28:09.221Z,1000.40
2018-12-08T05:29:09.230Z,1000.38
2018-12-08T05:30:09.231Z,1000.37
2018-12-08T05:31:09.233Z,1000.33
2018-12-08T05:32:09.243Z,1000.36
2018-12-08T05:33:09.243Z,1000.36
2018-12-08T05:34:09.251Z,1000.38
2018-12-08T05:35:09.251Z,1000.34
2018-12-08T05:36:09.268Z,1000.34
2018-12-08T05:37:09.265Z,1000.35
2018-12-08T05:38:09.268Z,1000.31
2018-12-08T05:39:09.278Z,1000.35
2018-12-08T05:40:09.272Z,1000.35
2018-12-08T05:41:09.282Z,1000.32
2018-12-08T05:42:09.292Z,1000.28
2018-12-08T05:43:09.291Z,1000.28
2018-12-08T05:44:09.302Z,1000.33
2018-12-08T05:45:09.298Z,1000.29
2018-12-08T05:46:09.304Z,1000.31
2018-12-08T05:47:09.308Z,1000.25
2018-12-08T05:48:09.304Z,1000.29
2018-12-08T05:49:09.318Z,1000.31
2018-12-08T05:50:09.329Z,1000.26
2018-12-08T05:51:09.335Z,1000.17
2018-12-08T05:52:09.336Z,1000.30
2018-12-08T05:53:09.340Z,1000.23
2018-12-08T05:54:09.338Z,1000.24
2018-12-08T05:55:09.344Z,1000.25
2018-12-08T05:56:09.346Z,1000.23
2018-12-08T05:57:09.362Z,1000.29
2018-12-08T05:58:09.358Z,1000.33
2018-12-08T05:59:09.366Z,1000.21
2018-12-08T06:00:09.368Z,1000.25
2018-12-08T06:01:09.372Z,1000.31
2018-12-08T06:02:09.381Z,1000.21
2018-12-08T06:03:09.386Z,1000.29
2018-12-08T06:04:09.389Z,1000.33
2018-12-08T06:05:09.392Z,1000.20
2018-12-08T06:06:09.392Z,1000.29
2018-12-08T06:07:09.400Z,1000.29
2018-12-08T06:08:09.400Z,1000.28
2018-12-08T06:09:09.411Z,1000.23
2018-12-08T06:10:09.411Z,1000.19
2018-12-08T06:11:09.420Z,1000.24
2018-12-08T06:12:09.422Z,1000.26
2018-12-08T06:13:09.428Z,1000.20
2018-12-08T06:14:09.501Z,1000.18
2018-12-08T06:15:09.431Z,1000.20
2018-12-08T06:16:09.440Z,1000.23
2018-12-08T06:17:09.440Z,1000.28
2018-12-08T06:18:09.509Z,1000.28
2018-12-08T06:19:09.457Z,1000.17
2018-12-08T06:20:09.457Z,1000.30
2018-12-08T06:21:09.469Z,1000.11
2018-12-08T06:22:09.465Z,1000.17
2018-12-08T06:23:09.463Z,1000.06
2018-12-08T06:24:09.478Z,1000.16
2018-12-08T06:25:09.478Z,1000.14
2018-12-08T06:26:09.493Z,1000.27
2018-12-08T06:27:09.493Z,1000.35
2018-12-08T06:28:09.495Z,1000.29
2018-12-08T06:29:09.495Z,1000.30
2018-12-08T06:30:09.501Z,1000.30
2018-12-08T06:31:09.506Z,1000.22
2018-12-08T06:32:09.509Z,1000.24
2018-12-08T06:33:09.523Z,1000.27
2018-12-08T06:34:09.520Z,1000.26
2018-12-08T06:35:09.529Z,1000.12
2018-12-08T06:36:09.523Z,1000.05
2018-12-08T06:37:09.533Z,1000.09
2018-12-08T06:38:09.530Z,1000.02
2018-12-08T06:39:09.547Z,1000.01
2018-12-08T06:40:09.547Z,1000.09
2018-12-08T06:41:09.555Z,1000.08
2018-12-08T06:42:09.555Z,1000.06
2018-12-08T06:43:09.565Z,1000.12
2018-12-08T06:44:09.565Z,1000.17
2018-12-08T06:45:10.455Z,1000.10
2018-12-08T06:46:09.577Z,1000.07
2018-12-08T06:47:09.578Z,1000.13
2018-12-08T06:48:09.605Z,1000.07
2018-12-08T06:49:09.581Z,1000.04
2018-12-08T06:50:09.602Z,1000.11
2018-12-08T06:51:09.591Z,1000.08
2018-12-08T06:52:09.599Z,1000.05
2018-12-08T06:53:09.605Z,1000.10
2018-12-08T06:54:09.613Z,1000.06
2018-12-08T06:55:09.614Z,1000.08
2018-12-08T06:56:09.615Z,1000.06
2018-12-08T06:57:09.624Z,1000.02
2018-12-08T06:58:09.631Z,999.99
2018-12-08T06:59:09.635Z,999.86
2018-12-08T07:00:09.637Z,999.95
2018-12-08T07:01:09.652Z,1000.00
2018-12-08T07:02:09.645Z,999.99
2018-12-08T07:03:09.645Z,1000.02
2018-12-08T07:04:09.654Z,999.96
2018-12-08T07:05:09.753Z,999.92
2018-12-08T07:06:09.659Z,999.91
2018-12-08T07:07:09.671Z,999.91
2018-12-08T07:08:09.671Z,999.92
2018-12-08T07:09:09.673Z,999.90
2018-12-08T07:10:09.678Z,999.88
2018-12-08T07:11:09.685Z,999.87
2018-12-08T07:12:09.685Z,999.88
2018-12-08T07:13:09.695Z,999.96
2018-12-08T07:14:09.704Z,999.86
2018-12-08T07:15:09.698Z,999.88
2018-12-08T07:16:09.702Z,999.93
2018-12-08T07:17:09.708Z,999.93
2018-12-08T07:18:09.719Z,999.92
2018-12-08T07:19:09.713Z,999.85
2018-12-08T07:20:09.726Z,999.79
2018-12-08T07:21:09.728Z,999.80
2018-12-08T07:22:09.745Z,999.72
2018-12-08T07:23:09.732Z,999.70
2018-12-08T07:24:09.745Z,999.68
2018-12-08T07:25:09.742Z,999.67
2018-12-08T07:26:09.748Z,999.69
2018-12-08T07:27:09.753Z,999.67
2018-12-08T07:28:09.762Z,999.67
2018-12-08T07:29:09.760Z,999.68
2018-12-08T07:30:09.824Z,999.70
2018-12-08T07:31:09.770Z,999.75
2018-12-08T07:32:09.771Z,999.70
2018-12-08T07:33:09.780Z,999.66
2018-12-08T07:34:09.780Z,999.66
2018-12-08T07:35:09.794Z,999.66
2018-12-08T07:36:09.792Z,999.73
2018-12-08T07:37:09.798Z,999.72
2018-12-08T07:38:09.796Z,999.72
2018-12-08T07:39:09.811Z,999.73
2018-12-08T07:40:09.816Z,999.68
2018-12-08T07:41:10.524Z,999.76
2018-12-08T07:42:09.819Z,999.68
2018-12-08T07:43:09.824Z,999.63
2018-12-08T07:44:09.826Z,999.56
2018-12-08T07:45:09.832Z,999.59
2018-12-08T07:46:09.838Z,999.62
2018-12-08T07:47:09.842Z,999.66
2018-12-08T07:48:09.844Z,999.68
2018-12-08T07:49:09.850Z,999.67
2018-12-08T07:50:09.859Z,999.71
2018-12-08T07:51:09.862Z,999.68
2018-12-08T07:52:09.867Z,999.63
2018-12-08T07:53:09.863Z,999.62
2018-12-08T07:54:09.873Z,999.72
2018-12-08T07:55:09.878Z,999.65
2018-12-08T07:56:09.886Z,999.59
2018-12-08T07:57:09.884Z,999.54
2018-12-08T07:58:09.888Z,999.54
2018-12-08T07:59:09.888Z,999.55
2018-12-08T08:00:09.901Z,999.64
2018-12-08T08:01:09.904Z,999.60
2018-12-08T08:02:09.902Z,999.57
2018-12-08T08:03:09.906Z,999.65
2018-12-08T08:04:09.916Z,999.63
2018-12-08T08:05:09.918Z,999.60
2018-12-08T08:06:09.928Z,999.65
2018-12-08T08:07:09.928Z,999.54
2018-12-08T08:08:09.927Z,999.53
2018-12-08T08:09:09.938Z,999.55
2018-12-08T08:10:09.944Z,999.57
2018-12-08T08:11:09.946Z,999.56
2018-12-08T08:12:09.949Z,999.56
2018-12-08T08:13:09.945Z,999.56
2018-12-08T08:14:09.956Z,999.55
2018-12-08T08:15:09.965Z,999.53
2018-12-08T08:16:09.956Z,999.49
2018-12-08T08:17:09.977Z,999.54
2018-12-08T08:18:09.978Z,999.53
2018-12-08T08:19:10.075Z,999.55
2018-12-08T08:20:09.984Z,999.47
2018-12-08T08:21:10.084Z,999.49
2018-12-08T08:22:09.992Z,999.47
2018-12-08T08:23:09.996Z,999.48
2018-12-08T08:24:10.004Z,999.47
2018-12-08T08:25:10.041Z,999.53
2018-12-08T08:26:10.013Z,999.45
2018-12-08T08:27:10.020Z,999.46
2018-12-08T08:28:10.022Z,999.44
2018-12-08T08:29:10.031Z,999.32
2018-12-08T08:30:10.026Z,999.37
2018-12-08T08:31:10.048Z,999.36
2018-12-08T08:32:10.037Z,999.42
2018-12-08T08:33:10.042Z,999.45
2018-12-08T08:34:10.052Z,999.43
2018-12-08T08:35:10.139Z,999.45
2018-12-08T08:36:10.057Z,999.41
2018-12-08T08:37:10.067Z,999.46
2018-12-08T08:38:10.070Z,999.49
2018-12-08T08:39:10.070Z,999.44
2018-12-08T08:40:10.077Z,999.47
2018-12-08T08:41:10.076Z,999.45
2018-12-08T08:42:10.080Z,999.47
2018-12-08T08:43:10.082Z,999.51
2018-12-08T08:44:10.092Z,999.41
2018-12-08T08:45:10.091Z,999.49
2018-12-08T08:46:10.100Z,999.47
2018-12-08T08:47:10.097Z,999.54
2018-12-08T08:48:10.120Z,999.46
2018-12-08T08:49:10.108Z,999.46
2018-12-08T08:50:10.120Z,999.53
2018-12-08T08:51:10.116Z,999.50
2018-12-08T08:52:10.128Z,999.47
2018-12-08T08:53:10.128Z,999.48
2018-12-08T08:54:10.133Z,999.49
2018-12-08T08:55:10.294Z,999.43
2018-12-08T08:56:10.146Z,999.42
2018-12-08T08:57:10.156Z,999.47
2018-12-08T08:58:10.154Z,999.46
2018-12-08T08:59:10.165Z,999.41
2018-12-08T09:00:10.165Z,999.39
2018-12-08T09:01:10.170Z,999.42
2018-12-08T09:02:10.172Z,999.43
2018-12-08T09:03:10.195Z,999.43
2018-12-08T09:04:10.289Z,999.32
2018-12-08T09:05:10.198Z,999.31
2018-12-08T09:06:10.189Z,999.34
2018-12-08T09:07:10.214Z,999.38
2018-12-08T09:08:10.204Z,999.36
2018-12-08T09:09:10.212Z,999.27
2018-12-08T09:10:10.209Z,999.18
2018-12-08T09:11:10.226Z,999.27
2018-12-08T09:12:10.221Z,999.24
2018-12-08T09:13:11.054Z,999.21
2018-12-08T09:14:13.338Z,999.24
2018-12-08T09:15:10.242Z,999.24
2018-12-08T09:16:10.244Z,999.26
2018-12-08T09:17:10.248Z,999.25
2018-12-08T09:18:10.254Z,999.23
2018-12-08T09:19:10.257Z,999.31
2018-12-08T09:20:10.278Z,999.18
2018-12-08T09:21:10.371Z,999.25
2018-12-08T09:22:10.268Z,999.22
2018-12-08T09:23:10.268Z,999.22
2018-12-08T09:24:10.268Z,999.17
2018-12-08T09:25:10.293Z,999.23
2018-12-08T09:26:10.278Z,999.17
2018-12-08T09:27:10.321Z,999.10
2018-12-08T09:28:10.292Z,999.22
2018-12-08T09:29:10.373Z,999.17
2018-12-08T09:30:10.294Z,999.26
2018-12-08T09:31:10.345Z,999.15
2018-12-08T09:32:10.306Z,999.17
2018-12-08T09:33:10.316Z,999.27
2018-12-08T09:34:10.316Z,999.22
2018-12-08T09:35:10.324Z,999.17
2018-12-08T09:36:10.326Z,999.28
2018-12-08T09:37:10.334Z,999.29
2018-12-08T09:38:10.335Z,999.22
2018-12-08T09:39:10.340Z,999.27
2018-12-08T09:40:10.340Z,999.28
2018-12-08T09:41:10.348Z,999.29
2018-12-08T09:42:10.355Z,999.17
2018-12-08T09:43:10.358Z,999.29
2018-12-08T09:44:10.362Z,999.34
2018-12-08T09:45:10.373Z,999.29
2018-12-08T09:46:10.374Z,999.29
2018-12-08T09:47:10.374Z,999.44
2018-12-08T09:48:10.380Z,999.38
2018-12-08T09:49:10.383Z,999.36
2018-12-08T09:50:10.388Z,999.44
2018-12-08T09:51:10.392Z,999.40
2018-12-08T09:52:10.398Z,999.42
2018-12-08T09:53:10.404Z,999.44
2018-12-08T09:54:10.411Z,999.42
2018-12-08T09:55:10.423Z,999.43
2018-12-08T09:56:10.419Z,999.46
2018-12-08T09:57:10.418Z,999.50
2018-12-08T09:58:10.424Z,999.43
2018-12-08T09:59:10.432Z,999.38
2018-12-08T10:00:10.428Z,999.46
2018-12-08T10:01:10.436Z,999.40
2018-12-08T10:02:10.438Z,999.42
2018-12-08T10:03:10.452Z,999.47
2018-12-08T10:04:10.449Z,999.35
2018-12-08T10:05:10.458Z,999.35
2018-12-08T10:06:10.458Z,999.31
2018-12-08T10:07:10.462Z,999.36
2018-12-08T10:08:10.477Z,999.29
2018-12-08T10:09:10.475Z,999.33
2018-12-08T10:10:10.477Z,999.35
2018-12-08T10:11:10.484Z,999.28
2018-12-08T10:12:10.493Z,999.34
2018-12-08T10:13:10.534Z,999.36
2018-12-08T10:14:10.493Z,999.26
2018-12-08T10:15:10.504Z,999.32
2018-12-08T10:16:10.505Z,999.30
2018-12-08T10:17:10.506Z,999.30
2018-12-08T10:18:10.514Z,999.22
2018-12-08T10:19:10.540Z,999.35
2018-12-08T10:20:10.539Z,999.18
2018-12-08T10:21:10.530Z,999.21
2018-12-08T10:22:10.536Z,999.35
2018-12-08T10:23:10.535Z,999.33
2018-12-08T10:24:10.542Z,999.23
2018-12-08T10:25:10.541Z,999.25
2018-12-08T10:26:10.554Z,999.27
2018-12-08T10:27:10.555Z,999.26
2018-12-08T10:28:10.557Z,999.24
2018-12-08T10:29:10.563Z,999.21
2018-12-08T10:30:10.569Z,999.12
2018-12-08T10:31:10.572Z,999.22
2018-12-08T10:32:10.584Z,999.26
2018-12-08T10:33:10.581Z,999.25
2018-12-08T10:34:10.609Z,999.16
2018-12-08T10:35:10.589Z,999.20
2018-12-08T10:36:10.591Z,999.20
2018-12-08T10:37:10.600Z,999.29
2018-12-08T10:38:10.615Z,999.18
2018-12-08T10:39:10.615Z,999.19
2018-12-08T10:40:10.610Z,999.22
2018-12-08T10:41:10.614Z,999.25
2018-12-08T10:42:10.622Z,999.22
2018-12-08T10:43:10.624Z,999.16
2018-12-08T10:44:10.627Z,999.22
2018-12-08T10:45:10.632Z,999.20
2018-12-08T10:46:10.640Z,999.11
2018-12-08T10:47:10.640Z,999.14
2018-12-08T10:48:10.640Z,999.13
2018-12-08T10:49:10.654Z,999.17
2018-12-08T10:50:10.657Z,999.21
2018-12-08T10:51:10.663Z,999.07
2018-12-08T10:52:10.664Z,999.15
2018-12-08T10:53:10.670Z,999.11
2018-12-08T10:54:10.673Z,999.12
2018-12-08T10:55:10.678Z,999.12
2018-12-08T10:56:10.676Z,999.12
2018-12-08T10:57:10.685Z,999.14
2018-12-08T10:58:10.684Z,999.15
2018-12-08T10:59:10.692Z,999.10
2018-12-08T11:00:10.693Z,999.06
2018-12-08T11:01:10.705Z,999.08
2018-12-08T11:02:11.592Z,999.03
2018-12-08T11:03:10.713Z,999.01
2018-12-08T11:04:10.717Z,999.12
2018-12-08T11:05:10.721Z,999.02
2018-12-08T11:06:10.733Z,998.96
2018-12-08T11:07:10.738Z,998.95
2018-12-08T11:08:11.594Z,998.91
2018-12-08T11:09:10.741Z,999.08
2018-12-08T11:10:10.903Z,999.03
2018-12-08T11:11:10.749Z,999.00
2018-12-08T11:12:10.771Z,998.92
2018-12-08T11:13:10.759Z,999.02
2018-12-08T11:14:10.769Z,998.95
2018-12-08T11:15:10.769Z,999.00
2018-12-08T11:16:10.781Z,998.94
2018-12-08T11:17:10.777Z,998.98
2018-12-08T11:18:10.848Z,998.96
2018-12-08T11:19:10.787Z,998.92
2018-12-08T11:20:10.853Z,998.99
2018-12-08T11:21:10.795Z,998.90
2018-12-08T11:22:10.798Z,998.82
2018-12-08T11:23:10.801Z,999.01
2018-12-08T11:24:10.889Z,998.83
2018-12-08T11:25:10.812Z,998.96
2018-12-08T11:26:10.829Z,999.02
2018-12-08T11:27:10.823Z,998.99
2018-12-08T11:28:10.837Z,999.01
2018-12-08T11:29:10.829Z,999.01
2018-12-08T11:30:10.837Z,999.01
2018-12-08T11:31:10.840Z,999.05
2018-12-08T11:32:10.857Z,998.96
2018-12-08T11:33:10.847Z,999.01
2018-12-08T11:34:10.867Z,999.02
2018-12-08T11:35:10.862Z,999.01
2018-12-08T11:36:10.870Z,999.02
2018-12-08T11:37:10.864Z,998.95
2018-12-08T11:38:10.877Z,999.06
2018-12-08T11:39:10.865Z,998.86
2018-12-08T11:40:10.885Z,999.03
2018-12-08T11:41:10.878Z,999.12
2018-12-08T11:42:10.888Z,999.07
2018-12-08T11:43:10.891Z,999.01
2018-12-08T11:44:10.893Z,998.98
2018-12-08T11:45:10.898Z,999.12
2018-12-08T11:46:10.913Z,999.13
2018-12-08T11:47:10.907Z,999.15
2018-12-08T11:48:10.962Z,999.13
2018-12-08T11:49:10.920Z,999.14
2018-12-08T11:50:10.937Z,999.09
2018-12-08T11:51:10.929Z,999.21
2018-12-08T11:52:10.933Z,999.17
2018-12-08T11:53:10.931Z,999.18
2018-12-08T11:54:10.937Z,999.17
2018-12-08T11:55:10.949Z,999.22
2018-12-08T11:56:10.945Z,999.31
2018-12-08T11:57:10.953Z,999.34
2018-12-08T11:58:10.963Z,999.19
2018-12-08T11:59:10.979Z,999.18
2018-12-08T12:00:10.966Z,999.20
2018-12-08T12:01:10.970Z,999.24
2018-12-08T12:02:16.469Z,999.15
2018-12-08T12:03:10.979Z,999.12
2018-12-08T12:04:10.978Z,999.17
2018-12-08T12:05:10.988Z,999.17
2018-12-08T12:06:10.996Z,999.12
2018-12-08T12:07:10.999Z,999.16
2018-12-08T12:08:11.010Z,999.30
2018-12-08T12:09:11.004Z,999.13
2018-12-08T12:10:11.006Z,999.08
2018-12-08T12:11:11.020Z,999.09
2018-12-08T12:12:11.016Z,999.21
2018-12-08T12:13:11.022Z,999.13
2018-12-08T12:14:11.027Z,999.12
2018-12-08T12:15:11.029Z,999.02